createdAt,value
2023-02-02T00:01:35.876Z,6.10
2023-02-02T00:04:04.151Z,6.10
2023-02-02T00:06:33.243Z,6.10
2023-02-02T00:09:02.824Z,6.10
2023-02-02T00:11:30.883Z,6.20
2023-02-02T00:14:00.919Z,6.30
2023-02-02T00:16:45.105Z,6.20
2023-02-02T00:19:15.418Z,6.20
2023-02-02T00:21:44.090Z,6.30
2023-02-02T00:24:13.630Z,6.20
2023-02-02T00:26:43.376Z,6.10
2023-02-02T00:29:17.035Z,6.00
2023-02-02T00:31:45.759Z,5.90
2023-02-02T00:34:14.323Z,6.00
2023-02-02T00:36:42.848Z,6.10
2023-02-02T00:39:12.038Z,6.30
2023-02-02T00:41:40.091Z,6.30
2023-02-02T00:44:25.661Z,6.20
2023-02-02T00:46:55.390Z,6.30
2023-02-02T00:49:23.518Z,6.20
2023-02-02T00:51:51.908Z,6.20
2023-02-02T00:54:19.826Z,6.10
2023-02-02T00:56:48.004Z,6.20
2023-02-02T00:59:16.028Z,6.20
2023-02-02T01:01:44.047Z,6.20
2023-02-02T01:04:13.631Z,6.10
2023-02-02T01:06:42.177Z,6.20
2023-02-02T01:09:10.767Z,6.20
2023-02-02T01:11:38.743Z,6.30
2023-02-02T01:14:06.759Z,6.30
2023-02-02T01:16:34.701Z,6.30
2023-02-02T01:19:02.796Z,6.30
2023-02-02T01:21:32.493Z,6.30
2023-02-02T01:24:00.507Z,6.20
2023-02-02T01:26:28.945Z,6.30
2023-02-02T01:28:56.897Z,6.30
2023-02-02T01:31:25.126Z,6.30
2023-02-02T01:33:53.920Z,6.30
2023-02-02T01:36:23.467Z,6.30
2023-02-02T01:38:52.978Z,6.20
2023-02-02T01:41:22.953Z,6.20
2023-02-02T01:43:55.154Z,6.10
2023-02-02T01:46:25.239Z,6.20
2023-02-02T01:48:58.404Z,6.20
2023-02-02T01:51:31.520Z,6.10
2023-02-02T01:54:02.182Z,6.10
2023-02-02T01:56:33.710Z,6.20
2023-02-02T01:59:02.297Z,6.00
2023-02-02T02:01:30.383Z,6.10
2023-02-02T02:03:58.635Z,6.10
2023-02-02T02:06:27.339Z,6.10
2023-02-02T02:08:58.510Z,6.20
2023-02-02T02:11:28.369Z,6.10
2023-02-02T02:14:16.693Z,6.10
2023-02-02T02:16:55.930Z,6.10
2023-02-02T02:19:59.413Z,6.10
2023-02-02T02:22:55.274Z,6.00
2023-02-02T02:26:05.225Z,6.10
2023-02-02T02:29:09.817Z,6.00
2023-02-02T02:32:35.030Z,6.00
2023-02-02T02:35:11.194Z,5.90
2023-02-02T02:37:46.265Z,5.90
2023-02-02T02:40:21.845Z,5.90
2023-02-02T02:42:55.020Z,5.90
2023-02-02T02:45:24.323Z,5.90
2023-02-02T02:47:53.560Z,5.80
2023-02-02T02:50:23.529Z,5.80
2023-02-02T02:53:05.135Z,5.90
2023-02-02T02:55:43.886Z,5.90
2023-02-02T02:58:17.934Z,5.90
2023-02-02T03:01:03.125Z,5.90
2023-02-02T03:03:48.302Z,5.90
2023-02-02T03:06:22.712Z,5.80
2023-02-02T03:08:56.077Z,5.90
2023-02-02T03:11:25.527Z,5.90
2023-02-02T03:13:53.777Z,5.90
2023-02-02T03:16:21.702Z,5.90
2023-02-02T03:18:50.086Z,5.90
2023-02-02T03:21:18.166Z,5.90
2023-02-02T03:23:46.220Z,5.90
2023-02-02T03:26:14.475Z,5.90
2023-02-02T03:28:44.047Z,5.90
2023-02-02T03:31:12.197Z,5.90
2023-02-02T03:33:40.418Z,5.90
2023-02-02T03:36:09.412Z,5.90
2023-02-02T03:38:37.738Z,5.90
2023-02-02T03:41:06.917Z,5.90
2023-02-02T03:43:34.791Z,6.00
2023-02-02T03:46:06.375Z,5.90
2023-02-02T03:48:37.927Z,5.90
2023-02-02T03:51:11.558Z,6.00
2023-02-02T03:53:40.016Z,6.00
2023-02-02T03:56:08.484Z,6.00
2023-02-02T03:58:36.436Z,6.00
2023-02-02T04:01:07.723Z,6.00
2023-02-02T04:03:35.724Z,6.10
2023-02-02T04:06:04.142Z,6.10
2023-02-02T04:08:32.461Z,6.10
2023-02-02T04:11:00.615Z,6.10
2023-02-02T04:13:29.082Z,6.10
2023-02-02T04:15:58.939Z,6.10
2023-02-02T04:18:28.609Z,6.10
2023-02-02T04:20:59.877Z,6.10
2023-02-02T04:23:29.116Z,6.20
2023-02-02T04:25:57.693Z,6.20
2023-02-02T04:28:26.004Z,6.20
2023-02-02T04:30:55.608Z,6.20
2023-02-02T04:33:24.787Z,6.20
2023-02-02T04:35:54.303Z,6.20
2023-02-02T04:38:22.749Z,6.30
2023-02-02T04:40:50.820Z,6.30
2023-02-02T04:43:19.051Z,6.20
2023-02-02T04:45:47.021Z,6.20
2023-02-02T04:48:14.937Z,6.20
2023-02-02T04:50:43.323Z,6.20
2023-02-02T04:53:13.012Z,6.30
2023-02-02T04:55:41.043Z,6.20
2023-02-02T04:58:08.927Z,6.20
2023-02-02T05:00:37.263Z,6.30
2023-02-02T05:03:05.556Z,6.20
2023-02-02T05:05:33.499Z,6.20
2023-02-02T05:08:01.482Z,6.20
2023-02-02T05:10:30.845Z,6.20
2023-02-02T05:12:59.036Z,6.20
2023-02-02T05:15:27.639Z,6.10
2023-02-02T05:17:55.593Z,6.20
2023-02-02T05:20:23.717Z,6.20
2023-02-02T05:22:51.685Z,6.10
2023-02-02T05:25:19.697Z,6.10
2023-02-02T05:27:49.213Z,6.00
2023-02-02T05:30:18.297Z,6.00
2023-02-02T05:32:46.171Z,6.10
2023-02-02T05:35:14.090Z,6.10
2023-02-02T05:37:43.675Z,6.10
2023-02-02T05:40:12.835Z,6.10
2023-02-02T05:42:40.917Z,6.20
2023-02-02T05:45:11.568Z,6.10
2023-02-02T05:47:39.781Z,6.20
2023-02-02T05:50:09.503Z,6.20
2023-02-02T05:52:40.047Z,6.30
2023-02-02T05:55:09.957Z,6.30
2023-02-02T05:57:38.657Z,6.20
2023-02-02T06:00:08.382Z,6.20
2023-02-02T06:02:37.885Z,6.30
2023-02-02T06:05:06.522Z,6.20
2023-02-02T06:07:34.550Z,6.20
2023-02-02T06:10:02.570Z,6.20
2023-02-02T06:12:30.534Z,6.20
2023-02-02T06:14:58.587Z,6.20
2023-02-02T06:17:26.680Z,6.20
2023-02-02T06:19:56.011Z,6.20
2023-02-02T06:22:24.057Z,6.30
2023-02-02T06:24:53.571Z,6.30
2023-02-02T06:27:22.073Z,6.20
2023-02-02T06:29:50.212Z,6.30
2023-02-02T06:32:18.314Z,6.30
2023-02-02T06:34:46.424Z,6.30
2023-02-02T06:37:15.971Z,6.30
2023-02-02T06:39:44.143Z,6.30
2023-02-02T06:42:21.111Z,6.40
2023-02-02T06:44:50.032Z,6.40
2023-02-02T06:47:18.170Z,6.30
2023-02-02T06:49:46.123Z,6.40
2023-02-02T06:52:15.514Z,6.40
2023-02-02T06:54:44.337Z,6.40
2023-02-02T06:57:12.259Z,6.40
2023-02-02T06:59:41.272Z,6.40
2023-02-02T07:02:12.241Z,6.40
2023-02-02T07:04:40.801Z,6.40
2023-02-02T07:07:08.782Z,6.40
2023-02-02T07:09:38.333Z,6.40
2023-02-02T07:12:06.740Z,6.40
2023-02-02T07:14:34.727Z,6.40
2023-02-02T07:17:02.746Z,6.40
2023-02-02T07:19:30.838Z,6.40
2023-02-02T07:21:59.211Z,6.40
2023-02-02T07:24:28.818Z,6.40
2023-02-02T07:26:58.944Z,6.40
2023-02-02T07:29:27.039Z,6.50
2023-02-02T07:31:55.438Z,6.50
2023-02-02T07:34:23.928Z,6.50
2023-02-02T07:36:52.064Z,6.50
2023-02-02T07:39:20.212Z,6.40
2023-02-02T07:41:48.781Z,6.40
2023-02-02T07:44:18.793Z,6.40
2023-02-02T07:46:48.181Z,6.40
2023-02-02T07:49:18.522Z,6.40
2023-02-02T07:51:49.155Z,6.50
2023-02-02T07:54:17.116Z,6.50
2023-02-02T07:56:45.811Z,6.50
2023-02-02T07:59:13.969Z,6.50
2023-02-02T08:01:43.736Z,6.40
2023-02-02T08:04:11.716Z,6.50
2023-02-02T08:06:41.210Z,6.50
2023-02-02T08:09:10.787Z,6.50
2023-02-02T08:11:39.955Z,6.60
2023-02-02T08:14:10.128Z,6.60
2023-02-02T08:16:38.553Z,6.60
2023-02-02T08:19:08.185Z,6.60
2023-02-02T08:21:36.688Z,6.70
2023-02-02T08:24:05.781Z,6.70
2023-02-02T08:26:33.819Z,6.70
2023-02-02T08:29:04.028Z,6.70
2023-02-02T08:31:35.811Z,6.70
2023-02-02T08:34:04.255Z,6.70
2023-02-02T08:36:38.115Z,6.80
2023-02-02T08:39:09.013Z,6.90
2023-02-02T08:41:38.311Z,6.80
2023-02-02T08:44:09.914Z,6.80
2023-02-02T08:46:39.998Z,6.80
2023-02-02T08:49:11.647Z,6.80
2023-02-02T08:51:41.742Z,6.80
2023-02-02T08:54:10.137Z,6.80
2023-02-02T08:56:38.253Z,6.80
2023-02-02T08:59:08.031Z,6.80
2023-02-02T09:01:38.296Z,6.90
2023-02-02T09:04:08.808Z,6.90
2023-02-02T09:06:39.051Z,6.90
2023-02-02T09:09:10.600Z,7.00
2023-02-02T09:11:39.703Z,6.90
2023-02-02T09:14:09.750Z,7.00
2023-02-02T09:16:38.402Z,7.10
2023-02-02T09:19:11.290Z,7.10
2023-02-02T09:21:40.724Z,7.10
2023-02-02T09:24:13.565Z,7.20
2023-02-02T09:26:42.315Z,7.10
2023-02-02T09:29:15.675Z,7.20
2023-02-02T09:31:44.244Z,7.20
2023-02-02T09:34:20.038Z,7.30
2023-02-02T09:36:50.172Z,7.30
2023-02-02T09:39:20.695Z,7.30
2023-02-02T09:42:24.101Z,7.30
2023-02-02T09:45:04.254Z,7.30
2023-02-02T09:47:54.934Z,7.30
2023-02-02T09:50:41.162Z,7.30
2023-02-02T09:53:19.402Z,7.30
2023-02-02T09:55:51.731Z,7.30
2023-02-02T09:58:23.236Z,7.40
2023-02-02T10:00:57.116Z,7.40
2023-02-02T10:03:31.321Z,7.40
2023-02-02T10:06:06.120Z,7.40
2023-02-02T10:08:38.536Z,7.40
2023-02-02T10:11:23.593Z,7.40
2023-02-02T10:13:53.742Z,7.40
2023-02-02T10:16:24.534Z,7.50
2023-02-02T10:18:57.237Z,7.40
2023-02-02T10:21:33.616Z,7.50
2023-02-02T10:24:05.551Z,7.50
2023-02-02T10:26:39.929Z,7.40
2023-02-02T10:29:16.322Z,7.40
2023-02-02T10:31:50.424Z,7.40
2023-02-02T10:34:25.029Z,7.50
2023-02-02T10:37:17.540Z,7.50
2023-02-02T10:40:00.224Z,7.50
2023-02-02T10:42:39.378Z,7.50
2023-02-02T10:45:14.802Z,7.50
2023-02-02T10:47:42.954Z,7.60
2023-02-02T10:50:20.010Z,7.60
2023-02-02T10:55:29.889Z,7.70
2023-02-02T10:58:16.607Z,7.70
2023-02-02T11:00:51.469Z,7.80
2023-02-02T11:03:21.768Z,7.80
2023-02-02T11:06:07.358Z,7.70
2023-02-02T11:08:37.809Z,7.70
2023-02-02T11:11:13.212Z,7.70
2023-02-02T11:13:47.673Z,7.70
2023-02-02T11:16:38.774Z,7.70
2023-02-02T11:19:25.030Z,7.70
2023-02-02T11:21:56.276Z,7.70
2023-02-02T11:24:28.102Z,7.70
2023-02-02T11:27:00.581Z,7.70
2023-02-02T11:29:32.350Z,7.70
2023-02-02T11:32:18.370Z,7.70
2023-02-02T11:34:46.762Z,7.70
2023-02-02T11:37:15.896Z,7.80
2023-02-02T11:39:44.918Z,7.90
2023-02-02T11:42:19.011Z,8.00
2023-02-02T11:44:52.024Z,8.00
2023-02-02T11:47:23.029Z,8.10
2023-02-02T11:49:52.825Z,8.20
2023-02-02T11:52:23.871Z,8.20
2023-02-02T11:54:54.874Z,8.20
2023-02-02T11:57:24.551Z,8.20
2023-02-02T12:00:17.733Z,8.20
2023-02-02T12:02:48.113Z,8.20
2023-02-02T12:05:35.372Z,8.20
2023-02-02T12:08:05.063Z,8.20
2023-02-02T12:10:40.135Z,8.30
2023-02-02T12:13:14.770Z,8.20
2023-02-02T12:15:51.172Z,8.30
2023-02-02T12:18:40.380Z,8.30
2023-02-02T12:21:12.227Z,8.30
2023-02-02T12:23:52.056Z,8.30
2023-02-02T12:26:24.977Z,8.30
2023-02-02T12:29:24.528Z,8.20
2023-02-02T12:32:18.150Z,8.20
2023-02-02T12:34:57.992Z,8.20
2023-02-02T12:37:40.003Z,8.20
2023-02-02T12:40:30.089Z,8.20
2023-02-02T12:43:11.178Z,8.30
2023-02-02T12:45:50.599Z,8.30
2023-02-02T12:48:33.812Z,8.40
2023-02-02T12:51:16.026Z,8.40
2023-02-02T12:54:35.024Z,8.40
2023-02-02T12:57:02.396Z,8.30
2023-02-02T12:59:59.851Z,8.30
2023-02-02T13:02:35.184Z,8.30
2023-02-02T13:05:21.232Z,8.30
2023-02-02T13:07:52.402Z,8.30
2023-02-02T13:10:27.189Z,8.30
2023-02-02T13:12:58.593Z,8.20
2023-02-02T13:15:34.219Z,8.20
2023-02-02T13:18:07.257Z,8.20
2023-02-02T13:20:44.947Z,8.20
2023-02-02T13:23:20.243Z,8.20
2023-02-02T13:25:51.806Z,8.20
2023-02-02T13:28:37.116Z,8.20
2023-02-02T13:31:12.542Z,8.20
2023-02-02T13:33:42.439Z,8.20
2023-02-02T13:36:25.663Z,8.30
2023-02-02T13:38:58.008Z,8.20
2023-02-02T13:41:26.795Z,8.30
2023-02-02T13:44:02.404Z,8.30
2023-02-02T13:46:37.509Z,8.30
2023-02-02T13:49:11.007Z,8.30
2023-02-02T13:52:04.219Z,8.30
2023-02-02T13:55:10.870Z,8.20
2023-02-02T13:57:59.397Z,8.30
2023-02-02T14:00:30.929Z,8.40
2023-02-02T14:03:03.849Z,8.50
2023-02-02T14:05:34.348Z,8.50
2023-02-02T14:08:07.242Z,8.50
2023-02-02T14:10:37.784Z,8.40
2023-02-02T14:13:31.392Z,8.50
2023-02-02T14:16:01.735Z,8.50
2023-02-02T14:18:59.052Z,8.50
2023-02-02T14:22:06.527Z,8.50
2023-02-02T14:24:45.235Z,8.50
2023-02-02T14:27:57.018Z,8.50
2023-02-02T14:30:33.810Z,8.60
2023-02-02T14:33:39.824Z,8.50
2023-02-02T14:36:14.975Z,8.50
2023-02-02T14:39:15.643Z,8.50
2023-02-02T14:42:32.571Z,8.50
2023-02-02T14:45:28.328Z,8.50
2023-02-02T14:47:59.693Z,8.50
2023-02-02T14:50:37.070Z,8.50
2023-02-02T14:53:09.377Z,8.40
2023-02-02T14:55:50.712Z,8.40
2023-02-02T14:58:26.635Z,8.40
2023-02-02T15:01:02.444Z,8.30
2023-02-02T15:03:47.262Z,8.30
2023-02-02T15:06:27.849Z,8.30
2023-02-02T15:09:29.149Z,8.30
2023-02-02T15:12:17.187Z,8.20
2023-02-02T15:14:51.546Z,8.20
2023-02-02T15:17:28.447Z,8.20
2023-02-02T15:20:07.345Z,8.20
2023-02-02T15:22:42.505Z,8.20
2023-02-02T15:25:19.990Z,8.20
2023-02-02T15:27:56.946Z,8.20
2023-02-02T15:30:33.041Z,8.20
2023-02-02T15:33:06.432Z,8.20
2023-02-02T15:35:38.079Z,8.30
2023-02-02T15:38:13.324Z,8.30
2023-02-02T15:40:42.218Z,8.30
2023-02-02T15:43:13.805Z,8.30
2023-02-02T15:45:48.260Z,8.40
2023-02-02T15:48:26.861Z,8.40
2023-02-02T15:50:56.151Z,8.40
2023-02-02T15:53:27.322Z,8.30
2023-02-02T15:55:57.348Z,8.30
2023-02-02T15:58:33.778Z,8.30
2023-02-02T16:01:08.095Z,8.30
2023-02-02T16:03:46.719Z,8.20
2023-02-02T16:06:15.111Z,8.30
2023-02-02T16:08:43.541Z,8.30
2023-02-02T16:11:14.039Z,8.30
2023-02-02T16:13:45.014Z,8.20
2023-02-02T16:16:26.830Z,8.20
2023-02-02T16:19:07.554Z,8.20
2023-02-02T16:21:38.962Z,8.20
2023-02-02T16:24:13.132Z,8.20
2023-02-02T16:26:41.418Z,8.20
2023-02-02T16:29:12.648Z,8.10
2023-02-02T16:31:42.260Z,8.10
2023-02-02T16:34:18.554Z,8.10
2023-02-02T16:37:01.654Z,8.10
2023-02-02T16:39:29.699Z,8.10
2023-02-02T16:42:10.047Z,8.10
2023-02-02T16:44:43.103Z,8.20
2023-02-02T16:47:38.832Z,8.20
2023-02-02T16:50:30.169Z,8.30
2023-02-02T16:53:21.870Z,8.20
2023-02-02T16:55:51.581Z,8.20
2023-02-02T16:58:24.046Z,8.20
2023-02-02T17:01:12.328Z,8.10
2023-02-02T17:03:50.212Z,8.10
2023-02-02T17:06:18.867Z,8.10
2023-02-02T17:08:47.769Z,8.10
2023-02-02T17:11:24.065Z,8.20
2023-02-02T17:13:53.036Z,8.10
2023-02-02T17:16:23.190Z,8.10
2023-02-02T17:18:52.726Z,8.10
2023-02-02T17:21:23.810Z,8.20
2023-02-02T17:23:54.313Z,8.20
2023-02-02T17:26:22.570Z,8.10
2023-02-02T17:28:55.218Z,8.10
2023-02-02T17:31:23.345Z,8.10
2023-02-02T17:33:52.872Z,8.10
2023-02-02T17:36:21.117Z,8.10
2023-02-02T17:38:49.039Z,8.20
2023-02-02T17:41:17.148Z,8.10
2023-02-02T17:43:45.899Z,8.10
2023-02-02T17:46:14.212Z,8.10
2023-02-02T17:48:42.712Z,8.10
2023-02-02T17:51:16.414Z,8.00
2023-02-02T17:53:44.892Z,8.00
2023-02-02T17:56:13.023Z,8.00
2023-02-02T17:58:42.010Z,8.00
2023-02-02T18:01:11.984Z,7.90
2023-02-02T18:03:44.376Z,7.90
2023-02-02T18:06:14.298Z,7.90
2023-02-02T18:08:42.305Z,7.90
2023-02-02T18:11:24.099Z,7.90
2023-02-02T18:13:52.027Z,7.90
2023-02-02T18:16:21.362Z,7.90
2023-02-02T18:18:49.571Z,7.90
2023-02-02T18:21:19.156Z,7.90
2023-02-02T18:23:49.536Z,7.90
2023-02-02T18:26:22.094Z,7.80
2023-02-02T18:28:50.957Z,7.90
2023-02-02T18:31:21.604Z,7.90
2023-02-02T18:33:49.894Z,7.90
2023-02-02T18:36:23.648Z,7.80
2023-02-02T18:38:53.855Z,7.90
2023-02-02T18:41:22.571Z,7.80
2023-02-02T18:43:52.853Z,7.90
2023-02-02T18:46:21.160Z,7.90
2023-02-02T18:48:49.288Z,7.80
2023-02-02T18:51:21.801Z,7.80
2023-02-02T18:53:50.030Z,7.70
2023-02-02T18:56:18.254Z,7.80
2023-02-02T18:58:46.263Z,7.70
2023-02-02T19:01:16.387Z,7.70
2023-02-02T19:03:48.430Z,7.70
2023-02-02T19:06:33.702Z,7.70
2023-02-02T19:09:02.971Z,7.70
2023-02-02T19:11:39.137Z,7.60
2023-02-02T19:14:13.989Z,7.60
2023-02-02T19:16:42.707Z,7.60
2023-02-02T19:19:25.125Z,7.60
2023-02-02T19:21:56.258Z,7.50
2023-02-02T19:24:26.716Z,7.60
2023-02-02T19:26:55.038Z,7.60
2023-02-02T19:29:25.438Z,7.60
2023-02-02T19:31:54.490Z,7.60
2023-02-02T19:34:23.518Z,7.50
2023-02-02T19:36:52.285Z,7.60
2023-02-02T19:39:25.095Z,7.60
2023-02-02T19:41:58.392Z,7.60
2023-02-02T19:44:30.275Z,7.50
2023-02-02T19:46:59.892Z,7.60
2023-02-02T19:49:33.602Z,7.60
2023-02-02T19:52:04.818Z,7.60
2023-02-02T19:54:37.932Z,7.60
2023-02-02T19:57:20.921Z,7.60
2023-02-02T19:59:52.394Z,7.60
2023-02-02T20:02:38.782Z,7.60
2023-02-02T20:05:18.980Z,7.50
2023-02-02T20:07:47.385Z,7.50
2023-02-02T20:10:23.615Z,7.50
2023-02-02T20:12:53.577Z,7.50
2023-02-02T20:15:36.503Z,7.60
2023-02-02T20:18:07.235Z,7.50
2023-02-02T20:20:40.651Z,7.50
2023-02-02T20:23:24.661Z,7.50
2023-02-02T20:25:53.026Z,7.50
2023-02-02T20:28:40.670Z,7.50
2023-02-02T20:31:12.184Z,7.40
2023-02-02T20:33:43.503Z,7.40
2023-02-02T20:36:33.542Z,7.40
2023-02-02T20:39:17.536Z,7.40
2023-02-02T20:41:45.709Z,7.40
2023-02-02T20:44:15.291Z,7.40
2023-02-02T20:46:43.404Z,7.50
2023-02-02T20:49:13.135Z,7.50
2023-02-02T20:51:41.327Z,7.40
2023-02-02T20:54:09.613Z,7.40
2023-02-02T20:56:37.887Z,7.40
2023-02-02T20:59:07.279Z,7.40
2023-02-02T21:01:36.987Z,7.40
2023-02-02T21:04:07.181Z,7.40
2023-02-02T21:06:35.443Z,7.40
2023-02-02T21:09:04.447Z,7.50
2023-02-02T21:11:34.287Z,7.50
2023-02-02T21:14:02.560Z,7.50
2023-02-02T21:16:30.670Z,7.50
2023-02-02T21:19:00.257Z,7.60
2023-02-02T21:21:28.756Z,7.50
2023-02-02T21:23:56.698Z,7.50
2023-02-02T21:26:29.984Z,7.50
2023-02-02T21:28:58.351Z,7.60
2023-02-02T21:31:26.771Z,7.60
2023-02-02T21:33:55.133Z,7.60
2023-02-02T21:36:36.556Z,7.50
2023-02-02T21:39:14.589Z,7.60
2023-02-02T21:41:42.710Z,7.50
2023-02-02T21:44:14.736Z,7.50
2023-02-02T21:46:43.218Z,7.50
2023-02-02T21:49:20.322Z,7.50
2023-02-02T21:51:50.087Z,7.50
2023-02-02T21:54:23.088Z,7.50
2023-02-02T21:56:52.177Z,7.50
2023-02-02T21:59:22.359Z,7.40
2023-02-02T22:01:52.646Z,7.40
2023-02-02T22:04:23.290Z,7.40
2023-02-02T22:06:54.432Z,7.40
2023-02-02T22:09:25.086Z,7.40
2023-02-02T22:11:58.570Z,7.30
2023-02-02T22:14:37.400Z,7.40
2023-02-02T22:17:19.953Z,7.30
2023-02-02T22:19:47.770Z,7.40
2023-02-02T22:22:20.034Z,7.30
2023-02-02T22:24:53.376Z,7.30
2023-02-02T22:27:24.046Z,7.20
2023-02-02T22:29:57.795Z,7.20
2023-02-02T22:32:25.863Z,7.20
2023-02-02T22:34:53.793Z,7.20
2023-02-02T22:37:23.271Z,7.20
2023-02-02T22:39:51.365Z,7.20
2023-02-02T22:42:19.375Z,7.30
2023-02-02T22:44:48.228Z,7.30
2023-02-02T22:47:16.344Z,7.30
2023-02-02T22:49:44.461Z,7.20
2023-02-02T22:52:12.481Z,7.30
2023-02-02T22:54:41.760Z,7.30
2023-02-02T22:57:09.775Z,7.20
2023-02-02T22:59:37.739Z,7.30
2023-02-02T23:02:05.699Z,7.20
2023-02-02T23:04:33.699Z,7.20
2023-02-02T23:07:02.079Z,7.10
2023-02-02T23:09:30.431Z,7.20
2023-02-02T23:11:59.813Z,7.20
2023-02-02T23:14:27.730Z,7.20
2023-02-02T23:16:55.765Z,7.30
2023-02-02T23:19:23.687Z,7.30
2023-02-02T23:21:51.662Z,7.20
2023-02-02T23:24:19.688Z,7.20
2023-02-02T23:26:47.726Z,7.20
2023-02-02T23:29:17.422Z,7.10
2023-02-02T23:31:45.426Z,7.10
2023-02-02T23:34:13.724Z,7.00
2023-02-02T23:36:41.702Z,7.00
2023-02-02T23:39:09.683Z,6.90
2023-02-02T23:41:38.413Z,6.90
2023-02-02T23:44:06.701Z,6.90
2023-02-02T23:46:37.699Z,6.90
2023-02-02T23:49:05.906Z,6.80
2023-02-02T23:51:34.017Z,6.80
2023-02-02T23:54:02.751Z,6.80
2023-02-02T23:56:30.828Z,6.80
2023-02-02T23:58:58.799Z,6.90
